createdAt,value
2016-01-17T00:00:25.447Z,1009.1
2016-01-17T00:01:25.435Z,1009
2016-01-17T00:02:25.140Z,1009
2016-01-17T00:03:25.081Z,1009
2016-01-17T00:04:25.271Z,1009
2016-01-17T00:05:24.977Z,1009.1
2016-01-17T00:06:24.902Z,1009.1
2016-01-17T00:07:24.841Z,1009.2
2016-01-17T00:08:24.781Z,1009.1
2016-01-17T00:09:24.722Z,1009.1
2016-01-17T00:10:24.693Z,1009
2016-01-17T00:11:24.602Z,1009.2
2016-01-17T00:12:24.542Z,1009.2
2016-01-17T00:13:24.670Z,1009.2
2016-01-17T00:14:24.407Z,1009
2016-01-17T00:15:24.363Z,1009.1
2016-01-17T00:16:24.303Z,1009.1
2016-01-17T00:17:24.259Z,1009.1
2016-01-17T00:18:24.183Z,1009.2
2016-01-17T00:19:24.108Z,1009.1
2016-01-17T00:20:24.064Z,1009.1
2016-01-17T00:21:24.003Z,1009.1
2016-01-17T00:22:23.928Z,1009.2
2016-01-17T00:23:23.884Z,1009.1
2016-01-17T00:24:23.808Z,1009.3
2016-01-17T00:25:23.749Z,1009.2
2016-01-17T00:26:23.706Z,1009.2
2016-01-17T00:27:23.644Z,1009
2016-01-17T00:28:23.804Z,1009.1
2016-01-17T00:29:23.510Z,1009.2
2016-01-17T00:30:23.669Z,1009.2
2016-01-17T00:31:23.391Z,1009.1
2016-01-17T00:32:23.330Z,1009
2016-01-17T00:33:23.458Z,1009.1
2016-01-17T00:34:23.211Z,1009
2016-01-17T00:35:23.166Z,1009
2016-01-17T00:36:23.107Z,1009.1
2016-01-17T00:37:23.032Z,1009.1
2016-01-17T00:38:22.206Z,1009.1
2016-01-17T00:39:23.099Z,1009.2
2016-01-17T00:40:23.071Z,1009
2016-01-17T00:41:22.777Z,1009
2016-01-17T00:42:22.717Z,1009
2016-01-17T00:43:22.657Z,1008.9
2016-01-17T00:44:22.613Z,1009
2016-01-17T00:45:22.741Z,1009
2016-01-17T00:46:22.478Z,1009
2016-01-17T00:47:22.418Z,1009
2016-01-17T00:48:22.358Z,1009
2016-01-17T00:49:22.298Z,1009
2016-01-17T00:50:22.254Z,1009
2016-01-17T00:51:22.164Z,1009
2016-01-17T00:52:22.103Z,1009
2016-01-17T00:53:22.075Z,1009.2
2016-01-17T00:54:21.999Z,1009
2016-01-17T00:55:22.159Z,1009.1
2016-01-17T00:56:21.864Z,1009.1
2016-01-17T00:57:21.805Z,1009.2
2016-01-17T00:58:21.760Z,1009.2
2016-01-17T00:59:21.700Z,1009.1
2016-01-17T01:00:21.625Z,1009.2
2016-01-17T01:01:21.581Z,1009.1
2016-01-17T01:02:21.729Z,1009.2
2016-01-17T01:03:21.434Z,1009.2
2016-01-17T01:04:21.375Z,1009.1
2016-01-17T01:05:21.330Z,1009.1
2016-01-17T01:06:21.254Z,1009
2016-01-17T01:07:21.196Z,1009.2
2016-01-17T01:08:21.135Z,1009.2
2016-01-17T01:09:21.076Z,1009.2
2016-01-17T01:10:21.031Z,1009.2
2016-01-17T01:11:20.190Z,1009.2
2016-01-17T01:12:20.896Z,1009.2
2016-01-17T01:13:20.821Z,1009.2
2016-01-17T01:14:20.761Z,1009.1
2016-01-17T01:15:20.717Z,1009.2
2016-01-17T01:16:20.657Z,1009.1
2016-01-17T01:17:20.598Z,1009
2016-01-17T01:18:20.522Z,1009
2016-01-17T01:19:20.462Z,1009.1
2016-01-17T01:20:20.402Z,1009.1
2016-01-17T01:21:20.358Z,1009.2
2016-01-17T01:22:20.283Z,1009.1
2016-01-17T01:23:20.220Z,1009.2
2016-01-17T01:24:20.144Z,1009.1
2016-01-17T01:25:20.100Z,1009.1
2016-01-17T01:26:20.041Z,1009.2
2016-01-17T01:27:19.981Z,1009.1
2016-01-17T01:28:19.921Z,1009.2
2016-01-17T01:29:19.861Z,1009.2
2016-01-17T01:30:19.801Z,1009.1
2016-01-17T01:31:19.758Z,1009.2
2016-01-17T01:32:19.682Z,1009.1
2016-01-17T01:33:19.621Z,1009.1
2016-01-17T01:34:19.562Z,1009
2016-01-17T01:35:19.502Z,1009
2016-01-17T01:36:19.427Z,1009.1
2016-01-17T01:37:19.383Z,1009.2
2016-01-17T01:38:19.307Z,1009.1
2016-01-17T01:39:19.249Z,1009.1
2016-01-17T01:40:19.188Z,1009.2
2016-01-17T01:41:19.129Z,1009.2
2016-01-17T01:42:19.068Z,1009.1
2016-01-17T01:43:19.040Z,1009.1
2016-01-17T01:44:18.949Z,1009
2016-01-17T01:45:18.889Z,1009.1
2016-01-17T01:46:18.830Z,1009
2016-01-17T01:47:18.785Z,1009
2016-01-17T01:48:18.710Z,1008.9
2016-01-17T01:49:18.838Z,1009.2
2016-01-17T01:50:18.590Z,1009
2016-01-17T01:51:18.782Z,1009.1
2016-01-17T01:52:18.472Z,1009.1
2016-01-17T01:53:18.412Z,1009.1
2016-01-17T01:54:18.383Z,1009.1
2016-01-17T01:55:18.293Z,1009.1
2016-01-17T01:56:18.233Z,1009
2016-01-17T01:57:18.173Z,1009.1
2016-01-17T01:58:18.097Z,1009.2
2016-01-17T01:59:18.054Z,1009.2
2016-01-17T02:00:17.993Z,1009.2
2016-01-17T02:01:17.934Z,1009.2
2016-01-17T02:02:17.874Z,1009.1
2016-01-17T02:03:17.815Z,1009.1
2016-01-17T02:04:17.739Z,1009.2
2016-01-17T02:05:17.695Z,1009.1
2016-01-17T02:06:17.635Z,1009.1
2016-01-17T02:07:17.591Z,1009
2016-01-17T02:08:17.515Z,1009.1
2016-01-17T02:09:17.456Z,1009.1
2016-01-17T02:10:17.411Z,1009.1
2016-01-17T02:11:17.337Z,1009.1
2016-01-17T02:12:17.276Z,1009.2
2016-01-17T02:13:17.217Z,1009.1
2016-01-17T02:14:17.156Z,1009
2016-01-17T02:15:17.301Z,1009
2016-01-17T02:16:17.053Z,1009.2
2016-01-17T02:17:16.977Z,1009.1
2016-01-17T02:18:16.917Z,1009.1
2016-01-17T02:19:16.873Z,1009.1
2016-01-17T02:20:16.798Z,1009.1
2016-01-17T02:21:16.736Z,1009.2
2016-01-17T02:22:16.691Z,1009.1
2016-01-17T02:23:16.616Z,1009.1
2016-01-17T02:24:16.571Z,1009.1
2016-01-17T02:25:16.511Z,1009.2
2016-01-17T02:26:16.670Z,1009.2
2016-01-17T02:27:16.377Z,1009.2
2016-01-17T02:28:16.332Z,1009.1
2016-01-17T02:29:16.272Z,1009.2
2016-01-17T02:30:16.197Z,1009.2
2016-01-17T02:31:16.153Z,1009.3
2016-01-17T02:32:16.077Z,1009.2
2016-01-17T02:33:16.018Z,1009.1
2016-01-17T02:34:15.958Z,1009.3
2016-01-17T02:35:15.913Z,1009.1
2016-01-17T02:36:15.854Z,1009.2
2016-01-17T02:37:15.778Z,1009.2
2016-01-17T02:38:15.718Z,1009.1
2016-01-17T02:39:15.659Z,1009.2
2016-01-17T02:40:15.598Z,1009.1
2016-01-17T02:41:15.554Z,1009.3
2016-01-17T02:42:15.495Z,1009.2
2016-01-17T02:43:15.420Z,1009.2
2016-01-17T02:44:15.360Z,1009.1
2016-01-17T02:45:15.316Z,1009.1
2016-01-17T02:46:15.256Z,1009.2
2016-01-17T02:47:15.196Z,1009.1
2016-01-17T02:48:15.136Z,1009.2
2016-01-17T02:49:15.061Z,1009.1
2016-01-17T02:50:15.016Z,1009.2
2016-01-17T02:51:14.956Z,1009.1
2016-01-17T02:52:14.912Z,1009
2016-01-17T02:53:14.103Z,1009
2016-01-17T02:54:14.793Z,1009.1
2016-01-17T02:55:14.717Z,1009.1
2016-01-17T02:56:14.658Z,1009.1
2016-01-17T02:57:14.629Z,1009.1
2016-01-17T02:58:14.554Z,1009
2016-01-17T02:59:14.494Z,1009.1
2016-01-17T03:00:14.637Z,1009
2016-01-17T03:01:14.375Z,1009.1
2016-01-17T03:02:14.299Z,1009.1
2016-01-17T03:03:14.239Z,1009
2016-01-17T03:04:14.195Z,1009.1
2016-01-17T03:05:14.135Z,1009.2
2016-01-17T03:06:14.060Z,1009.2
2016-01-17T03:07:13.999Z,1009.1
2016-01-17T03:08:13.941Z,1009.1
2016-01-17T03:09:13.880Z,1009.1
2016-01-17T03:10:13.836Z,1009.1
2016-01-17T03:11:13.963Z,1009
2016-01-17T03:12:13.701Z,1009.1
2016-01-17T03:13:13.641Z,1009.1
2016-01-17T03:14:13.815Z,1009.2
2016-01-17T03:15:13.506Z,1009.1
2016-01-17T03:16:13.462Z,1009.2
2016-01-17T03:17:13.386Z,1009.1
2016-01-17T03:18:13.342Z,1009
2016-01-17T03:19:13.298Z,1009
2016-01-17T03:20:13.237Z,1009.2
2016-01-17T03:21:13.162Z,1009.1
2016-01-17T03:22:13.103Z,1009
2016-01-17T03:23:12.938Z,1009.2
2016-01-17T03:24:14.595Z,1009.1
2016-01-17T03:25:12.820Z,1009.1
2016-01-17T03:26:17.354Z,1009.1
2016-01-17T03:27:13.482Z,1009.1
2016-01-17T03:28:13.314Z,1009.1
2016-01-17T03:29:12.675Z,1009.2
2016-01-17T03:30:12.725Z,1009.1
2016-01-17T03:31:12.556Z,1009.2
2016-01-17T03:32:12.496Z,1009
2016-01-17T03:33:12.436Z,1009.1
2016-01-17T03:34:12.376Z,1009
2016-01-17T03:35:12.332Z,1009.2
2016-01-17T03:36:12.288Z,1009
2016-01-17T03:37:12.213Z,1009.1
2016-01-17T03:38:12.137Z,1009.1
2016-01-17T03:39:12.077Z,1009
2016-01-17T03:40:12.032Z,1009.2
2016-01-17T03:41:11.958Z,1009.1
2016-01-17T03:42:11.915Z,1009.2
2016-01-17T03:43:11.699Z,1009
2016-01-17T03:44:11.780Z,1009
2016-01-17T03:45:11.720Z,1009.2
2016-01-17T03:46:11.660Z,1009
2016-01-17T03:47:11.616Z,1009.3
2016-01-17T03:48:11.556Z,1009.2
2016-01-17T03:49:11.496Z,1009.1
2016-01-17T03:50:11.421Z,1009.2
2016-01-17T03:51:11.377Z,1009
2016-01-17T03:52:11.317Z,1009.3
2016-01-17T03:53:11.444Z,1009.1
2016-01-17T03:54:11.182Z,1009.2
2016-01-17T03:55:11.122Z,1009.1
2016-01-17T03:56:11.060Z,1009
2016-01-17T03:57:11.000Z,1009.3
2016-01-17T03:58:10.941Z,1009.2
2016-01-17T03:59:10.880Z,1009.3
2016-01-17T04:00:10.852Z,1009.2
2016-01-17T04:01:10.761Z,1009.3
2016-01-17T04:02:10.716Z,1009.3
2016-01-17T04:03:10.640Z,1009.3
2016-01-17T04:04:10.582Z,1009.3
2016-01-17T04:05:10.538Z,1009.1
2016-01-17T04:06:10.477Z,1009.4
2016-01-17T04:07:10.402Z,1009.3
2016-01-17T04:08:10.342Z,1009.3
2016-01-17T04:09:10.282Z,1009.3
2016-01-17T04:10:10.223Z,1009.3
2016-01-17T04:11:10.163Z,1009.3
2016-01-17T04:12:10.118Z,1009.3
2016-01-17T04:13:10.059Z,1009.4
2016-01-17T04:14:09.983Z,1009.2
2016-01-17T04:15:09.923Z,1009.3
2016-01-17T04:16:10.051Z,1009.3
2016-01-17T04:17:09.804Z,1009.3
2016-01-17T04:18:09.948Z,1009.4
2016-01-17T04:19:09.716Z,1009.4
2016-01-17T04:20:09.609Z,1009.3
2016-01-17T04:21:09.753Z,1009.3
2016-01-17T04:22:09.489Z,1009.4
2016-01-17T04:23:09.445Z,1009.5
2016-01-17T04:24:09.369Z,1009.4
2016-01-17T04:25:09.372Z,1009.4
2016-01-17T04:26:09.250Z,1009.4
2016-01-17T04:27:09.191Z,1009.4
2016-01-17T04:28:09.130Z,1009.5
2016-01-17T04:29:09.305Z,1009.5
2016-01-17T04:30:09.214Z,1009.4
2016-01-17T04:31:08.951Z,1009.6
2016-01-17T04:32:08.907Z,1009.7
2016-01-17T04:33:08.832Z,1009.6
2016-01-17T04:34:08.772Z,1009.5
2016-01-17T04:35:08.697Z,1009.6
2016-01-17T04:36:08.637Z,1009.5
2016-01-17T04:37:08.592Z,1009.5
2016-01-17T04:38:08.501Z,1009.6
2016-01-17T04:39:08.646Z,1009.5
2016-01-17T04:40:08.382Z,1009.5
2016-01-17T04:41:08.322Z,1009.5
2016-01-17T04:42:08.262Z,1009.6
2016-01-17T04:43:08.218Z,1009.6
2016-01-17T04:44:08.158Z,1009.7
2016-01-17T04:45:08.083Z,1009.5
2016-01-17T04:46:08.023Z,1009.6
2016-01-17T04:47:07.963Z,1009.7
2016-01-17T04:48:07.903Z,1009.6
2016-01-17T04:49:07.828Z,1009.7
2016-01-17T04:50:07.784Z,1009.6
2016-01-17T04:51:07.708Z,1009.7
2016-01-17T04:52:07.665Z,1009.7
2016-01-17T04:53:07.604Z,1009.7
2016-01-17T04:54:07.513Z,1009.8
2016-01-17T04:55:06.703Z,1009.8
2016-01-17T04:56:07.395Z,1009.7
2016-01-17T04:57:07.334Z,1009.7
2016-01-17T04:58:07.290Z,1009.7
2016-01-17T04:59:07.200Z,1009.7
2016-01-17T05:00:07.140Z,1009.7
2016-01-17T05:01:07.081Z,1009.8
2016-01-17T05:02:07.224Z,1009.7
2016-01-17T05:03:06.961Z,1009.7
2016-01-17T05:04:06.901Z,1009.7
2016-01-17T05:05:06.826Z,1009.8
2016-01-17T05:06:06.763Z,1009.7
2016-01-17T05:07:06.954Z,1009.7
2016-01-17T05:08:06.832Z,1009.8
2016-01-17T05:09:06.584Z,1009.8
2016-01-17T05:10:06.524Z,1009.7
2016-01-17T05:11:06.480Z,1009.8
2016-01-17T05:12:06.389Z,1009.8
2016-01-17T05:13:06.328Z,1009.6
2016-01-17T05:14:06.253Z,1009.7
2016-01-17T05:15:06.209Z,1009.7
2016-01-17T05:16:06.150Z,1009.6
2016-01-17T05:17:06.090Z,1009.7
2016-01-17T05:18:06.014Z,1009.6
2016-01-17T05:19:05.206Z,1009.8
2016-01-17T05:20:05.895Z,1009.7
2016-01-17T05:21:05.835Z,1009.8
2016-01-17T05:22:05.775Z,1009.9
2016-01-17T05:23:05.731Z,1009.8
2016-01-17T05:24:05.641Z,1009.8
2016-01-17T05:25:05.575Z,1009.8
2016-01-17T05:26:05.502Z,1009.9
2016-01-17T05:27:05.444Z,1009.8
2016-01-17T05:28:05.356Z,1009.7
2016-01-17T05:29:05.282Z,1009.8
2016-01-17T05:30:05.213Z,1009.8
2016-01-17T05:31:05.132Z,1009.9
2016-01-17T05:32:05.068Z,1009.9
2016-01-17T05:33:05.003Z,1009.9
2016-01-17T05:34:04.940Z,1010.1
2016-01-17T05:35:04.923Z,1010
2016-01-17T05:36:04.798Z,1010
2016-01-17T05:37:04.940Z,1009.8
2016-01-17T05:38:05.096Z,1009.8
2016-01-17T05:39:04.613Z,1009.9
2016-01-17T05:40:04.552Z,1009.9
2016-01-17T05:41:04.475Z,1009.9
2016-01-17T05:42:04.431Z,1009.9
2016-01-17T05:43:04.354Z,1009.9
2016-01-17T05:44:04.295Z,1010
2016-01-17T05:45:04.219Z,1009.9
2016-01-17T05:46:04.175Z,1009.9
2016-01-17T05:47:04.303Z,1010
2016-01-17T05:48:03.305Z,1010
2016-01-17T05:49:04.213Z,1010
2016-01-17T05:50:03.904Z,1010.1
2016-01-17T05:51:03.844Z,1010.2
2016-01-17T05:52:03.799Z,1010.1
2016-01-17T05:53:03.741Z,1010.2
2016-01-17T05:54:03.680Z,1010.2
2016-01-17T05:55:03.604Z,1010.2
2016-01-17T05:56:03.544Z,1010.1
2016-01-17T05:57:03.469Z,1010.3
2016-01-17T05:58:03.425Z,1010.2
2016-01-17T05:59:03.366Z,1010.4
2016-01-17T06:00:03.290Z,1010.3
2016-01-17T06:01:03.230Z,1010.1
2016-01-17T06:02:03.155Z,1010.2
2016-01-17T06:03:03.299Z,1010.1
2016-01-17T06:04:03.035Z,1010.1
2016-01-17T06:05:02.975Z,1010.3
2016-01-17T06:06:02.901Z,1010.3
2016-01-17T06:07:02.870Z,1010.4
2016-01-17T06:08:02.983Z,1010.3
2016-01-17T06:09:02.720Z,1010.4
2016-01-17T06:10:02.879Z,1010.4
2016-01-17T06:11:02.585Z,1010.4
2016-01-17T06:12:02.541Z,1010.4
2016-01-17T06:13:02.481Z,1010.3
2016-01-17T06:14:02.406Z,1010.5
2016-01-17T06:15:02.565Z,1010.4
2016-01-17T06:16:02.286Z,1010.5
2016-01-17T06:17:02.211Z,1010.5
2016-01-17T06:18:02.167Z,1010.4
2016-01-17T06:19:02.091Z,1010.4
2016-01-17T06:20:02.031Z,1010.3
2016-01-17T06:21:01.956Z,1010.3
2016-01-17T06:22:01.912Z,1010.4
2016-01-17T06:23:01.852Z,1010.4
2016-01-17T06:24:01.792Z,1010.5
2016-01-17T06:25:01.716Z,1010.5
2016-01-17T06:26:01.642Z,1010.5
2016-01-17T06:27:01.582Z,1010.6
2016-01-17T06:28:01.521Z,1010.5
2016-01-17T06:29:01.462Z,1010.6
2016-01-17T06:30:01.402Z,1010.6
2016-01-17T06:31:01.358Z,1010.6
2016-01-17T06:32:01.282Z,1010.6
2016-01-17T06:33:15.348Z,1010.6
2016-01-17T06:34:01.006Z,1010.5
2016-01-17T06:36:01.059Z,1010.5
2016-01-17T06:39:01.989Z,1010.6
2016-01-17T06:41:15.729Z,1010.6
2016-01-17T06:43:00.625Z,1010.7
2016-01-17T06:44:00.767Z,1010.6
2016-01-17T06:45:00.739Z,1010.6
2016-01-17T06:46:00.445Z,1010.7
2016-01-17T06:47:01.386Z,1010.8
2016-01-17T06:48:14.451Z,1010.9
2016-01-17T06:49:00.266Z,1010.7
2016-01-17T06:51:00.349Z,1010.8
2016-01-17T06:52:16.353Z,1010.7
2016-01-17T06:53:00.214Z,1010.8
2016-01-17T06:53:59.966Z,1010.7
2016-01-17T06:55:29.008Z,1010.7
2016-01-17T06:55:59.855Z,1010.7
2016-01-17T06:56:59.030Z,1010.7
2016-01-17T06:58:14.235Z,1010.8
2016-01-17T06:58:59.660Z,1010.9
2016-01-17T06:59:59.599Z,1010.8
2016-01-17T07:00:59.541Z,1010.9
2016-01-17T07:01:59.497Z,1010.7
2016-01-17T07:02:59.422Z,1010.7
2016-01-17T07:03:59.347Z,1010.9
2016-01-17T07:04:59.489Z,1010.9
2016-01-17T07:05:59.227Z,1010.8
2016-01-17T07:06:59.182Z,1010.9
2016-01-17T07:07:59.104Z,1010.9
2016-01-17T07:08:59.061Z,1010.9
2016-01-17T07:09:59.001Z,1011
2016-01-17T07:10:59.128Z,1011.1
2016-01-17T07:12:13.290Z,1011
2016-01-17T07:15:00.092Z,1011.1
2016-01-17T07:15:59.377Z,1011
2016-01-17T07:20:59.593Z,1011.2
2016-01-17T07:23:12.349Z,1011.1
2016-01-17T07:23:58.196Z,1011.3
2016-01-17T07:24:58.307Z,1011.3
2016-01-17T07:25:58.044Z,1011.2
2016-01-17T07:26:57.969Z,1011.2
2016-01-17T07:27:57.940Z,1011.3
2016-01-17T07:28:57.849Z,1011.3
2016-01-17T07:29:57.804Z,1011.3
2016-01-17T07:30:57.730Z,1011.3
2016-01-17T07:31:57.685Z,1011.4
2016-01-17T07:32:57.610Z,1011.4
2016-01-17T07:33:57.597Z,1011.4
2016-01-17T07:34:57.490Z,1011.4
2016-01-17T07:35:57.431Z,1011.3
2016-01-17T07:36:57.355Z,1011.3
2016-01-17T07:37:57.311Z,1011.3
2016-01-17T07:38:57.251Z,1011.3
2016-01-17T07:39:57.207Z,1011.4
2016-01-17T07:41:11.554Z,1011.5
2016-01-17T07:43:11.825Z,1011.3
2016-01-17T07:43:58.500Z,1011.5
2016-01-17T07:45:12.846Z,1011.5
2016-01-17T07:45:56.817Z,1011.4
2016-01-17T07:46:57.413Z,1011.4
2016-01-17T07:47:56.541Z,1011.3
2016-01-17T07:48:56.638Z,1011.4
2016-01-17T07:49:56.578Z,1011.4
2016-01-17T07:50:56.518Z,1011.4
2016-01-17T07:51:56.803Z,1011.3
2016-01-17T07:53:10.961Z,1011.5
2016-01-17T07:53:56.323Z,1011.5
2016-01-17T07:54:56.264Z,1011.4
2016-01-17T07:55:56.203Z,1011.4
2016-01-17T07:56:56.347Z,1011.5
2016-01-17T07:57:56.069Z,1011.5
2016-01-17T07:58:56.024Z,1011.5
2016-01-17T07:59:55.964Z,1011.5
2016-01-17T08:00:56.091Z,1011.5
2016-01-17T08:01:55.830Z,1011.4
2016-01-17T08:03:10.176Z,1011.5
2016-01-17T08:05:10.635Z,1011.5
2016-01-17T08:06:09.715Z,1011.5
2016-01-17T08:06:55.562Z,1011.6
2016-01-17T08:07:55.892Z,1011.7
2016-01-17T08:09:10.098Z,1011.6
2016-01-17T08:09:57.882Z,1011.6
2016-01-17T08:10:55.447Z,1011.7
2016-01-17T08:11:55.246Z,1011.6
2016-01-17T08:12:55.187Z,1011.7
2016-01-17T08:13:55.143Z,1011.6
2016-01-17T08:16:09.398Z,1011.7
2016-01-17T08:17:09.151Z,1011.7
2016-01-17T08:19:13.140Z,1011.8
2016-01-17T08:19:54.784Z,1011.7
2016-01-17T08:20:54.693Z,1011.7
2016-01-17T08:21:54.633Z,1011.6
2016-01-17T08:22:54.573Z,1011.8
2016-01-17T08:23:54.513Z,1011.8
2016-01-17T08:24:54.469Z,1011.8
2016-01-17T08:25:54.425Z,1011.9
2016-01-17T08:26:54.334Z,1011.8
2016-01-17T08:27:54.274Z,1011.9
2016-01-17T08:28:54.214Z,1011.8
2016-01-17T08:29:54.170Z,1011.8
2016-01-17T08:30:54.094Z,1011.8
2016-01-17T08:31:54.035Z,1012
2016-01-17T08:32:54.194Z,1012
2016-01-17T08:33:53.916Z,1011.8
2016-01-17T08:34:53.855Z,1011.9
2016-01-17T08:35:53.780Z,1011.8
2016-01-17T08:36:53.735Z,1011.9
2016-01-17T08:37:52.911Z,1011.9
2016-01-17T08:38:53.616Z,1011.9
2016-01-17T08:39:53.541Z,1011.9
2016-01-17T08:40:53.481Z,1011.9
2016-01-17T08:41:53.421Z,1012
2016-01-17T08:42:53.362Z,1011.9
2016-01-17T08:43:53.317Z,1012
2016-01-17T08:44:53.445Z,1011.9
2016-01-17T08:45:53.167Z,1011.9
2016-01-17T08:46:53.123Z,1012
2016-01-17T08:47:53.062Z,1012.1
2016-01-17T08:48:53.003Z,1012.1
2016-01-17T08:49:52.943Z,1011.9
2016-01-17T08:50:53.086Z,1012
2016-01-17T08:51:52.823Z,1011.9
2016-01-17T08:52:52.747Z,1012.1
2016-01-17T08:53:52.703Z,1012
2016-01-17T08:54:52.644Z,1012.1
2016-01-17T08:55:51.803Z,1012.1
2016-01-17T08:56:52.508Z,1012.1
2016-01-17T08:57:52.450Z,1012
2016-01-17T08:58:52.389Z,1012
2016-01-17T08:59:52.330Z,1012.1
2016-01-17T09:00:52.285Z,1012
2016-01-17T09:01:52.225Z,1012.1
2016-01-17T09:02:52.134Z,1012.1
2016-01-17T09:03:52.074Z,1012.2
2016-01-17T09:04:52.014Z,1012.1
2016-01-17T09:05:51.955Z,1012.2
2016-01-17T09:06:51.910Z,1012.2
2016-01-17T09:07:51.851Z,1012.2
2016-01-17T09:08:51.791Z,1012.2
2016-01-17T09:09:51.715Z,1012.1
2016-01-17T09:10:51.656Z,1012.1
2016-01-17T09:11:51.595Z,1012.3
2016-01-17T09:12:51.520Z,1012.2
2016-01-17T09:13:51.710Z,1012.2
2016-01-17T09:14:51.401Z,1012.2
2016-01-17T09:15:51.356Z,1012.2
2016-01-17T09:16:51.281Z,1012.2
2016-01-17T09:17:51.424Z,1012.3
2016-01-17T09:18:51.161Z,1012.3
2016-01-17T09:19:51.101Z,1012.3
2016-01-17T09:20:51.042Z,1012.3
2016-01-17T09:21:51.217Z,1012.3
2016-01-17T09:22:50.922Z,1012.2
2016-01-17T09:23:50.862Z,1012.3
2016-01-17T09:24:50.787Z,1012.3
2016-01-17T09:25:50.727Z,1012.2
2016-01-17T09:26:50.886Z,1012.3
2016-01-17T09:27:50.608Z,1012.3
2016-01-17T09:28:50.547Z,1012.3
2016-01-17T09:29:50.503Z,1012.4
2016-01-17T09:30:50.428Z,1012.3
2016-01-17T09:31:50.368Z,1012.3
2016-01-17T09:32:50.308Z,1012.4
2016-01-17T09:33:50.467Z,1012.4
2016-01-17T09:34:50.173Z,1012.4
2016-01-17T09:35:50.129Z,1012.3
2016-01-17T09:36:50.054Z,1012.5
2016-01-17T09:37:49.993Z,1012.4
2016-01-17T09:38:49.935Z,1012.4
2016-01-17T09:39:49.874Z,1012.7
2016-01-17T09:40:49.814Z,1012.6
2016-01-17T09:41:49.942Z,1012.5
2016-01-17T09:42:49.695Z,1012.6
2016-01-17T09:43:49.634Z,1012.5
2016-01-17T09:44:49.575Z,1012.5
2016-01-17T09:45:49.562Z,1012.4
2016-01-17T09:46:49.440Z,1012.5
2016-01-17T09:47:49.380Z,1012.7
2016-01-17T09:48:49.367Z,1012.6
2016-01-17T09:49:49.276Z,1012.4
2016-01-17T09:50:49.201Z,1012.4
2016-01-17T09:51:49.140Z,1012.5
2016-01-17T09:52:49.081Z,1012.6
2016-01-17T09:53:49.020Z,1012.6
2016-01-17T09:54:48.961Z,1012.5
2016-01-17T09:55:48.901Z,1012.6
2016-01-17T09:56:48.823Z,1012.6
2016-01-17T09:57:48.765Z,1012.7
2016-01-17T09:58:48.704Z,1012.5
2016-01-17T09:59:48.646Z,1012.5
2016-01-17T10:00:48.586Z,1012.6
2016-01-17T10:01:48.510Z,1012.6
2016-01-17T10:02:48.450Z,1012.5
2016-01-17T10:03:48.406Z,1012.8
2016-01-17T10:04:48.346Z,1012.6
2016-01-17T10:05:48.271Z,1012.6
2016-01-17T10:06:48.212Z,1012.6
2016-01-17T10:07:48.167Z,1012.6
2016-01-17T10:08:48.092Z,1012.7
2016-01-17T10:09:48.032Z,1012.8
2016-01-17T10:10:47.973Z,1012.7
2016-01-17T10:11:47.898Z,1012.7
2016-01-17T10:12:47.854Z,1012.6
2016-01-17T10:13:47.793Z,1012.7
2016-01-17T10:14:47.717Z,1012.7
2016-01-17T10:15:47.658Z,1012.7
2016-01-17T10:16:47.598Z,1012.7
2016-01-17T10:17:47.539Z,1012.7
2016-01-17T10:18:47.712Z,1012.7
2016-01-17T10:19:47.450Z,1012.7
2016-01-17T10:20:47.359Z,1012.7
2016-01-17T10:21:47.300Z,1012.7
2016-01-17T10:22:47.458Z,1012.6
2016-01-17T10:23:47.180Z,1012.7
2016-01-17T10:24:47.104Z,1012.7
2016-01-17T10:25:47.045Z,1012.7
2016-01-17T10:26:46.984Z,1012.8
2016-01-17T10:27:46.941Z,1012.7
2016-01-17T10:28:46.881Z,1012.7
2016-01-17T10:29:47.040Z,1012.8
2016-01-17T10:30:46.744Z,1012.9
2016-01-17T10:31:46.155Z,1012.7
2016-01-17T10:32:46.626Z,1012.8
2016-01-17T10:33:46.550Z,1013
2016-01-17T10:34:46.522Z,1012.8
2016-01-17T10:35:46.681Z,1012.9
2016-01-17T10:36:46.386Z,1012.9
2016-01-17T10:37:46.327Z,1013
2016-01-17T10:38:46.251Z,1012.9
2016-01-17T10:39:46.207Z,1012.9
2016-01-17T10:40:46.147Z,1012.9
2016-01-17T10:41:46.322Z,1012.9
2016-01-17T10:43:16.293Z,1012.9
2016-01-17T10:43:45.968Z,1012.9
2016-01-17T10:44:45.923Z,1013
2016-01-17T10:45:45.848Z,1012.9
2016-01-17T10:46:45.820Z,1012.9
2016-01-17T10:47:45.729Z,1013
2016-01-17T10:48:45.669Z,1013
2016-01-17T10:49:45.609Z,1012.8
2016-01-17T10:50:45.534Z,1012.9
2016-01-17T10:51:45.490Z,1013
2016-01-17T10:52:45.414Z,1012.9
2016-01-17T10:53:45.370Z,1012.9
2016-01-17T10:54:45.309Z,1013
2016-01-17T10:55:45.453Z,1012.9
2016-01-17T10:56:45.175Z,1012.8
2016-01-17T10:57:45.114Z,1012.8
2016-01-17T10:58:45.070Z,1012.8
2016-01-17T10:59:45.011Z,1013
2016-01-17T11:00:44.935Z,1012.9
2016-01-17T11:01:45.360Z,1012.9
2016-01-17T11:02:44.816Z,1013
2016-01-17T11:03:45.788Z,1012.9
2016-01-17T11:04:44.883Z,1012.9
2016-01-17T11:05:44.636Z,1012.9
2016-01-17T11:06:44.561Z,1012.8
2016-01-17T11:07:44.516Z,1012.9
2016-01-17T11:08:44.676Z,1013
2016-01-17T11:09:44.382Z,1013
2016-01-17T11:10:44.322Z,1012.9
2016-01-17T11:11:44.262Z,1012.8
2016-01-17T11:12:44.202Z,1012.8
2016-01-17T11:13:44.142Z,1013
2016-01-17T11:14:44.067Z,1013
2016-01-17T11:15:44.007Z,1013
2016-01-17T11:16:43.947Z,1013
2016-01-17T11:17:43.903Z,1013
2016-01-17T11:18:43.828Z,1013
2016-01-17T11:19:43.987Z,1013
2016-01-17T11:20:43.911Z,1012.9
2016-01-17T11:21:43.836Z,1013
